createdAt,value
2016-02-17T00:00:39.061Z,17.29
2016-02-17T00:01:39.110Z,17.23
2016-02-17T00:02:39.191Z,17.26
2016-02-17T00:03:39.224Z,17.26
2016-02-17T00:04:39.275Z,17.24
2016-02-17T00:05:39.325Z,17.24
2016-02-17T00:06:39.358Z,17.24
2016-02-17T00:07:39.408Z,17.22
2016-02-17T00:08:39.457Z,17.3
2016-02-17T00:09:39.523Z,17.23
2016-02-17T00:10:39.571Z,17.23
2016-02-17T00:11:39.622Z,17.29
2016-02-17T00:12:39.671Z,17.3
2016-02-17T00:13:39.737Z,17.24
2016-02-17T00:14:39.787Z,17.26
2016-02-17T00:15:39.820Z,17.31
2016-02-17T00:16:39.870Z,17.23
2016-02-17T00:17:39.919Z,17.23
2016-02-17T00:18:39.984Z,17.24
2016-02-17T00:19:40.018Z,17.24
2016-02-17T00:20:40.083Z,17.2
2016-02-17T00:21:40.133Z,17.24
2016-02-17T00:22:40.167Z,17.23
2016-02-17T00:23:40.216Z,17.29
2016-02-17T00:24:40.313Z,17.29
2016-02-17T00:25:40.331Z,17.19
2016-02-17T00:26:40.381Z,17.16
2016-02-17T00:27:40.431Z,17.29
2016-02-17T00:28:40.464Z,17.23
2016-02-17T00:29:40.514Z,17.27
2016-02-17T00:30:40.599Z,17.29
2016-02-17T00:31:40.618Z,17.27
2016-02-17T00:32:40.668Z,17.23
2016-02-17T00:33:40.733Z,17.27
2016-02-17T00:34:40.782Z,17.3
2016-02-17T00:35:40.816Z,17.23
2016-02-17T00:36:40.882Z,17.3
2016-02-17T00:37:40.931Z,17.24
2016-02-17T00:38:40.980Z,17.27
2016-02-17T00:39:41.014Z,17.27
2016-02-17T00:40:41.080Z,17.23
2016-02-17T00:41:41.113Z,17.24
2016-02-17T00:42:41.163Z,17.23
2016-02-17T00:43:41.259Z,17.26
2016-02-17T00:44:41.293Z,17.29
2016-02-17T00:45:41.343Z,17.27
2016-02-17T00:46:41.362Z,17.29
2016-02-17T00:47:41.442Z,17.16
2016-02-17T00:48:41.336Z,17.24
2016-02-17T00:49:41.542Z,17.15
2016-02-17T00:50:41.575Z,17.29
2016-02-17T00:51:41.640Z,17.27
2016-02-17T00:52:41.674Z,17.29
2016-02-17T00:53:41.725Z,17.19
2016-02-17T00:54:41.789Z,17.29
2016-02-17T00:55:41.823Z,17.29
2016-02-17T00:56:41.872Z,17.23
2016-02-17T00:57:41.938Z,17.23
2016-02-17T00:58:41.972Z,17.2
2016-02-17T00:59:42.036Z,17.22
2016-02-17T01:00:42.102Z,17.22
2016-02-17T01:01:42.121Z,17.22
2016-02-17T01:02:42.170Z,17.14
2016-02-17T01:03:42.219Z,17.19
2016-02-17T01:04:42.285Z,17.26
2016-02-17T01:05:42.334Z,17.23
2016-02-17T01:06:42.228Z,17.24
2016-02-17T01:07:42.433Z,17.16
2016-02-17T01:08:42.515Z,17.15
2016-02-17T01:09:42.548Z,17.22
2016-02-17T01:10:42.473Z,17.15
2016-02-17T01:11:42.632Z,17.2
2016-02-17T01:12:41.931Z,17.22
2016-02-17T01:13:42.731Z,17.23
2016-02-17T01:14:42.796Z,17.15
2016-02-17T01:15:42.829Z,17.15
2016-02-17T01:16:42.879Z,17.12
2016-02-17T01:17:42.945Z,17.16
2016-02-17T01:18:43.042Z,17.2
2016-02-17T01:19:43.044Z,17.14
2016-02-17T01:20:43.109Z,17.2
2016-02-17T01:21:43.127Z,17.2
2016-02-17T01:22:43.178Z,17.23
2016-02-17T01:23:43.242Z,17.22
2016-02-17T01:24:43.276Z,17.16
2016-02-17T01:25:43.342Z,17.22
2016-02-17T01:26:43.375Z,17.19
2016-02-17T01:27:43.425Z,17.14
2016-02-17T01:28:43.506Z,17.2
2016-02-17T01:29:43.555Z,17.2
2016-02-17T01:30:43.589Z,17.19
2016-02-17T01:31:43.655Z,17.2
2016-02-17T01:32:43.688Z,17.19
2016-02-17T01:33:43.738Z,17.14
2016-02-17T01:34:43.802Z,17.12
2016-02-17T01:35:43.869Z,17.23
2016-02-17T01:36:43.902Z,17.09
2016-02-17T01:37:43.936Z,17.14
2016-02-17T01:38:43.985Z,17.16
2016-02-17T01:39:44.051Z,17.23
2016-02-17T01:40:44.101Z,17.08
2016-02-17T01:41:44.149Z,17.06
2016-02-17T01:42:43.449Z,17.08
2016-02-17T01:43:44.234Z,17.08
2016-02-17T01:44:44.283Z,17.14
2016-02-17T01:45:44.348Z,17.09
2016-02-17T01:46:44.398Z,17.09
2016-02-17T01:47:44.432Z,17.15
2016-02-17T01:48:44.497Z,17.06
2016-02-17T01:49:44.531Z,17.15
2016-02-17T01:50:44.595Z,17.12
2016-02-17T01:51:44.661Z,17.11
2016-02-17T01:52:44.695Z,17.11
2016-02-17T01:53:44.761Z,17.14
2016-02-17T01:54:44.809Z,17.11
2016-02-17T01:55:44.859Z,17.11
2016-02-17T01:56:44.909Z,17.05
2016-02-17T01:57:44.959Z,17.14
2016-02-17T01:58:45.008Z,17.11
2016-02-17T01:59:45.058Z,17.08
2016-02-17T02:00:45.108Z,17.05
2016-02-17T02:01:45.157Z,17.14
2016-02-17T02:02:45.206Z,17.12
2016-02-17T02:03:45.271Z,17.12
2016-02-17T02:04:45.336Z,17.16
2016-02-17T02:05:45.355Z,17.15
2016-02-17T02:06:44.654Z,17.11
2016-02-17T02:07:45.439Z,17.08
2016-02-17T02:08:45.488Z,17.15
2016-02-17T02:09:45.538Z,17.14
2016-02-17T02:10:45.588Z,17.12
2016-02-17T02:11:45.652Z,17.2
2016-02-17T02:12:45.687Z,17.08
2016-02-17T02:13:45.752Z,17.06
2016-02-17T02:14:45.801Z,17.08
2016-02-17T02:15:45.851Z,17.15
2016-02-17T02:16:45.916Z,17.08
2016-02-17T02:17:45.966Z,17.08
2016-02-17T02:18:45.999Z,17.09
2016-02-17T02:19:46.048Z,17.14
2016-02-17T02:20:46.098Z,17.11
2016-02-17T02:21:46.148Z,17.08
2016-02-17T02:22:46.182Z,17.12
2016-02-17T02:23:46.247Z,17.11
2016-02-17T02:24:46.297Z,17.14
2016-02-17T02:25:46.348Z,17.06
2016-02-17T02:26:46.397Z,17.12
2016-02-17T02:27:46.446Z,17.09
2016-02-17T02:28:46.496Z,17.11
2016-02-17T02:29:46.562Z,17.09
2016-02-17T02:30:46.595Z,17.14
2016-02-17T02:31:46.489Z,17.09
2016-02-17T02:32:46.694Z,17.09
2016-02-17T02:33:46.745Z,17.09
2016-02-17T02:34:46.793Z,17.12
2016-02-17T02:35:46.843Z,17.11
2016-02-17T02:36:46.908Z,17.06
2016-02-17T02:37:46.958Z,17.09
2016-02-17T02:38:47.008Z,17.12
2016-02-17T02:39:47.056Z,17.06
2016-02-17T02:40:47.106Z,17.05
2016-02-17T02:41:47.156Z,17.05
2016-02-17T02:42:47.206Z,17.02
2016-02-17T02:43:47.255Z,17.08
2016-02-17T02:44:47.305Z,17.04
2016-02-17T02:45:47.355Z,17.02
2016-02-17T02:46:47.405Z,17.06
2016-02-17T02:47:47.453Z,17.05
2016-02-17T02:48:47.503Z,17.02
2016-02-17T02:49:47.552Z,17.02
2016-02-17T02:50:47.602Z,17.09
2016-02-17T02:51:47.652Z,17.12
2016-02-17T02:52:47.716Z,17.02
2016-02-17T02:53:47.751Z,16.99
2016-02-17T02:54:47.801Z,17.12
2016-02-17T02:55:47.866Z,17.02
2016-02-17T02:56:47.947Z,17.05
2016-02-17T02:57:47.980Z,17.02
2016-02-17T02:58:47.999Z,16.99
2016-02-17T02:59:48.048Z,17.01
2016-02-17T03:00:48.098Z,16.94
2016-02-17T03:01:48.162Z,17.04
2016-02-17T03:02:48.213Z,16.94
2016-02-17T03:03:48.262Z,16.99
2016-02-17T03:04:48.312Z,17.01
2016-02-17T03:05:48.376Z,16.97
2016-02-17T03:06:48.426Z,17.04
2016-02-17T03:07:48.492Z,16.94
2016-02-17T03:08:48.509Z,17.08
2016-02-17T03:09:48.591Z,17.02
2016-02-17T03:10:48.609Z,17.08
2016-02-17T03:11:48.643Z,17.02
2016-02-17T03:12:48.708Z,16.96
2016-02-17T03:13:48.742Z,17.02
2016-02-17T03:14:48.807Z,17.06
2016-02-17T03:15:48.858Z,17.06
2016-02-17T03:16:48.906Z,17.05
2016-02-17T03:17:48.941Z,17.04
2016-02-17T03:18:49.005Z,17.01
2016-02-17T03:19:49.055Z,17.04
2016-02-17T03:20:49.136Z,16.94
2016-02-17T03:21:49.185Z,16.94
2016-02-17T03:22:49.219Z,17.04
2016-02-17T03:23:49.238Z,16.96
2016-02-17T03:24:49.319Z,16.97
2016-02-17T03:25:49.368Z,16.99
2016-02-17T03:26:49.402Z,16.99
2016-02-17T03:27:49.452Z,17.04
2016-02-17T03:28:49.517Z,16.97
2016-02-17T03:29:49.551Z,17.02
2016-02-17T03:30:49.615Z,16.96
2016-02-17T03:31:49.666Z,16.96
2016-02-17T03:32:49.715Z,16.94
2016-02-17T03:33:49.749Z,16.96
2016-02-17T03:34:49.815Z,17.02
2016-02-17T03:35:49.864Z,16.87
2016-02-17T03:36:49.945Z,16.99
2016-02-17T03:37:49.947Z,16.93
2016-02-17T03:38:50.028Z,16.94
2016-02-17T03:39:50.062Z,16.99
2016-02-17T03:40:50.143Z,16.94
2016-02-17T03:41:50.161Z,16.94
2016-02-17T03:42:50.226Z,16.97
2016-02-17T03:43:50.244Z,17.02
2016-02-17T03:44:50.325Z,16.97
2016-02-17T03:45:50.359Z,16.99
2016-02-17T03:46:50.409Z,17.01
2016-02-17T03:47:50.474Z,16.86
2016-02-17T03:48:50.508Z,16.94
2016-02-17T03:49:50.558Z,16.94
2016-02-17T03:50:50.622Z,17.01
2016-02-17T03:51:49.922Z,16.97
2016-02-17T03:52:50.707Z,16.93
2016-02-17T03:53:50.756Z,17.01
2016-02-17T03:54:50.821Z,16.99
2016-02-17T03:55:50.855Z,16.97
2016-02-17T03:56:50.921Z,16.94
2016-02-17T03:57:50.970Z,16.91
2016-02-17T03:58:51.004Z,16.93
2016-02-17T03:59:51.053Z,16.94
2016-02-17T04:00:51.119Z,16.87
2016-02-17T04:01:51.152Z,16.94
2016-02-17T04:02:51.202Z,16.86
2016-02-17T04:03:51.268Z,16.91
2016-02-17T04:04:51.317Z,16.9
2016-02-17T04:05:51.367Z,16.83
2016-02-17T04:06:51.415Z,16.83
2016-02-17T04:07:51.465Z,16.83
2016-02-17T04:08:51.359Z,16.89
2016-02-17T04:09:51.596Z,16.9
2016-02-17T04:10:51.598Z,16.96
2016-02-17T04:11:51.679Z,16.84
2016-02-17T04:12:51.713Z,16.89
2016-02-17T04:13:51.763Z,16.84
2016-02-17T04:14:51.812Z,16.86
2016-02-17T04:15:51.878Z,16.84
2016-02-17T04:16:51.942Z,16.84
2016-02-17T04:17:51.977Z,16.81
2016-02-17T04:18:52.027Z,16.89
2016-02-17T04:19:52.075Z,16.86
2016-02-17T04:20:52.110Z,16.86
2016-02-17T04:21:52.175Z,16.83
2016-02-17T04:22:52.209Z,16.83
2016-02-17T04:23:52.290Z,16.83
2016-02-17T04:24:52.324Z,16.86
2016-02-17T04:25:52.389Z,16.81
2016-02-17T04:26:52.423Z,16.81
2016-02-17T04:27:52.488Z,16.84
2016-02-17T04:28:52.521Z,16.79
2016-02-17T04:29:52.618Z,16.83
2016-02-17T04:30:52.621Z,16.83
2016-02-17T04:32:12.937Z,16.86
2016-02-17T04:32:52.736Z,16.87
2016-02-17T04:33:52.785Z,16.83
2016-02-17T04:34:52.835Z,16.87
2016-02-17T04:35:52.728Z,16.84
2016-02-17T04:36:52.918Z,16.79
2016-02-17T04:37:52.968Z,16.86
2016-02-17T04:38:53.034Z,16.86
2016-02-17T04:39:53.067Z,16.76
2016-02-17T04:40:53.117Z,16.81
2016-02-17T04:41:53.150Z,16.81
2016-02-17T04:42:53.216Z,16.75
2016-02-17T04:43:53.265Z,16.79
2016-02-17T04:44:53.330Z,16.79
2016-02-17T04:45:53.365Z,16.79
2016-02-17T04:46:53.445Z,16.83
2016-02-17T04:47:53.464Z,16.71
2016-02-17T04:48:53.514Z,16.84
2016-02-17T04:49:53.563Z,16.84
2016-02-17T04:50:53.613Z,16.83
2016-02-17T04:51:53.647Z,16.79
2016-02-17T04:52:53.727Z,16.84
2016-02-17T04:53:53.746Z,16.79
2016-02-17T04:54:53.842Z,16.87
2016-02-17T04:55:53.860Z,16.84
2016-02-17T04:56:53.925Z,16.81
2016-02-17T04:57:53.959Z,16.84
2016-02-17T04:58:54.040Z,16.81
2016-02-17T04:59:53.308Z,16.76
2016-02-17T05:00:54.124Z,16.81
2016-02-17T05:01:54.158Z,16.79
2016-02-17T05:02:54.223Z,16.84
2016-02-17T05:03:54.273Z,16.79
2016-02-17T05:04:54.321Z,16.84
2016-02-17T05:05:54.356Z,16.81
2016-02-17T05:06:54.421Z,16.76
2016-02-17T05:07:54.455Z,16.81
2016-02-17T05:08:54.537Z,16.81
2016-02-17T05:09:54.554Z,16.83
2016-02-17T05:10:54.651Z,16.81
2016-02-17T05:11:54.669Z,16.84
2016-02-17T05:12:54.734Z,16.81
2016-02-17T05:13:54.767Z,16.81
2016-02-17T05:14:54.834Z,16.75
2016-02-17T05:15:54.851Z,16.79
2016-02-17T05:16:54.948Z,16.78
2016-02-17T05:17:54.967Z,16.75
2016-02-17T05:18:55.016Z,16.76
2016-02-17T05:19:55.050Z,16.78
2016-02-17T05:20:55.114Z,16.78
2016-02-17T05:21:55.149Z,16.79
2016-02-17T05:22:55.199Z,16.76
2016-02-17T05:23:55.295Z,16.79
2016-02-17T05:24:55.298Z,16.72
2016-02-17T05:25:55.347Z,16.76
2016-02-17T05:26:55.413Z,16.75
2016-02-17T05:27:55.477Z,16.72
2016-02-17T05:28:55.527Z,16.76
2016-02-17T05:29:55.577Z,16.83
2016-02-17T05:30:55.627Z,16.78
2016-02-17T05:31:55.691Z,16.69
2016-02-17T05:32:55.726Z,16.72
2016-02-17T05:33:55.790Z,16.69
2016-02-17T05:34:55.840Z,16.72
2016-02-17T05:35:55.874Z,16.72
2016-02-17T05:36:55.893Z,16.75
2016-02-17T05:37:55.974Z,16.72
2016-02-17T05:38:56.023Z,16.72
2016-02-17T05:39:56.073Z,16.68
2016-02-17T05:40:56.122Z,16.75
2016-02-17T05:41:56.187Z,16.69
2016-02-17T05:42:56.205Z,16.72
2016-02-17T05:43:56.271Z,16.69
2016-02-17T05:44:56.304Z,16.75
2016-02-17T05:45:56.370Z,16.69
2016-02-17T05:46:56.404Z,16.66
2016-02-17T05:47:56.453Z,16.68
2016-02-17T05:48:56.503Z,16.66
2016-02-17T05:49:56.552Z,16.66
2016-02-17T05:50:56.602Z,16.68
2016-02-17T05:51:56.667Z,16.68
2016-02-17T05:52:56.701Z,16.64
2016-02-17T05:53:56.751Z,16.69
2016-02-17T05:54:56.816Z,16.68
2016-02-17T05:55:56.850Z,16.61
2016-02-17T05:56:56.915Z,16.66
2016-02-17T05:57:56.964Z,16.61
2016-02-17T05:58:57.013Z,16.66
2016-02-17T05:59:57.049Z,16.71
2016-02-17T06:00:57.114Z,16.66
2016-02-17T06:01:57.163Z,16.65
2016-02-17T06:02:57.212Z,16.66
2016-02-17T06:03:57.262Z,16.75
2016-02-17T06:04:57.312Z,16.71
2016-02-17T06:05:57.345Z,16.72
2016-02-17T06:06:57.411Z,16.64
2016-02-17T06:07:57.460Z,16.75
2016-02-17T06:08:57.494Z,16.69
2016-02-17T06:09:57.575Z,16.65
2016-02-17T06:10:57.624Z,16.69
2016-02-17T06:11:57.674Z,16.71
2016-02-17T06:12:58.051Z,16.71
2016-02-17T06:13:57.758Z,16.65
2016-02-17T06:14:57.823Z,16.69
2016-02-17T06:15:57.856Z,16.69
2016-02-17T06:16:57.906Z,16.66
2016-02-17T06:17:57.956Z,16.66
2016-02-17T06:18:58.006Z,16.66
2016-02-17T06:19:58.040Z,16.71
2016-02-17T06:20:58.105Z,16.61
2016-02-17T06:21:58.169Z,16.69
2016-02-17T06:22:58.204Z,16.71
2016-02-17T06:23:58.254Z,16.65
2016-02-17T06:24:58.319Z,16.68
2016-02-17T06:25:58.353Z,16.64
2016-02-17T06:26:58.402Z,16.71
2016-02-17T06:27:58.467Z,16.74
2016-02-17T06:28:58.516Z,16.74
2016-02-17T06:29:58.550Z,16.68
2016-02-17T06:30:58.647Z,16.72
2016-02-17T06:31:58.666Z,16.72
2016-02-17T06:32:58.700Z,16.68
2016-02-17T06:33:58.780Z,16.65
2016-02-17T06:34:58.799Z,16.69
2016-02-17T06:35:58.863Z,16.66
2016-02-17T06:36:58.913Z,16.66
2016-02-17T06:37:58.946Z,16.6
2016-02-17T06:38:59.013Z,16.69
2016-02-17T06:39:59.063Z,16.6
2016-02-17T06:40:59.096Z,16.57
2016-02-17T06:41:59.146Z,16.6
2016-02-17T06:42:59.226Z,16.58
2016-02-17T06:43:59.245Z,16.58
2016-02-17T06:44:59.309Z,16.68
2016-02-17T06:45:59.343Z,16.56
2016-02-17T06:46:59.410Z,16.56
2016-02-17T06:47:59.490Z,16.65
2016-02-17T06:48:59.477Z,16.65
2016-02-17T06:49:59.558Z,16.61
2016-02-17T06:50:59.607Z,16.65
2016-02-17T06:51:59.657Z,16.6
2016-02-17T06:52:59.706Z,16.56
2016-02-17T06:53:59.755Z,16.66
2016-02-17T06:54:59.806Z,16.64
2016-02-17T06:55:59.840Z,16.66
2016-02-17T06:56:59.905Z,16.57
2016-02-17T06:57:59.969Z,16.58
2016-02-17T06:59:00.003Z,16.6
2016-02-17T07:00:00.053Z,16.56
2016-02-17T07:01:00.133Z,16.56
2016-02-17T07:02:00.169Z,16.61
2016-02-17T07:03:00.203Z,16.66
2016-02-17T07:04:00.266Z,16.58
2016-02-17T07:05:00.316Z,16.56
2016-02-17T07:06:00.351Z,16.65
2016-02-17T07:07:00.432Z,16.58
2016-02-17T07:08:00.466Z,16.65
2016-02-17T07:09:00.500Z,16.56
2016-02-17T07:10:00.565Z,16.57
2016-02-17T07:11:00.599Z,16.53
2016-02-17T07:12:00.649Z,16.61
2016-02-17T07:13:00.713Z,16.6
2016-02-17T07:14:00.732Z,16.56
2016-02-17T07:15:00.796Z,16.56
2016-02-17T07:16:00.847Z,16.54
2016-02-17T07:17:00.896Z,16.61
2016-02-17T07:18:00.929Z,16.61
2016-02-17T07:19:01.011Z,16.61
2016-02-17T07:20:01.045Z,16.58
2016-02-17T07:21:01.094Z,16.61
2016-02-17T07:22:01.160Z,16.56
2016-02-17T07:23:01.192Z,16.6
2016-02-17T07:24:01.243Z,16.57
2016-02-17T07:25:01.323Z,16.5
2016-02-17T07:26:01.342Z,16.58
2016-02-17T07:27:01.392Z,16.6
2016-02-17T07:28:01.441Z,16.53
2016-02-17T07:29:01.506Z,16.61
2016-02-17T07:30:01.556Z,16.61
2016-02-17T07:31:01.636Z,16.61
2016-02-17T07:32:01.656Z,16.58
2016-02-17T07:33:01.689Z,16.65
2016-02-17T07:34:01.739Z,16.54
2016-02-17T07:35:01.819Z,16.61
2016-02-17T07:36:01.838Z,16.57
2016-02-17T07:37:01.903Z,16.57
2016-02-17T07:38:01.952Z,16.6
2016-02-17T07:39:01.986Z,16.58
2016-02-17T07:40:02.068Z,16.53
2016-02-17T07:41:02.117Z,16.51
2016-02-17T07:42:02.135Z,16.6
2016-02-17T07:43:02.201Z,16.58
2016-02-17T07:44:02.297Z,16.6
2016-02-17T07:45:02.284Z,16.61
2016-02-17T07:46:02.348Z,16.61
2016-02-17T07:47:02.415Z,16.56
2016-02-17T07:48:02.448Z,16.33
2016-02-17T07:49:02.479Z,15.97
2016-02-17T07:50:02.527Z,15.55
2016-02-17T07:51:02.576Z,15.17
2016-02-17T07:52:02.593Z,14.62
2016-02-17T07:53:02.627Z,14.26
2016-02-17T07:54:02.693Z,13.7
2016-02-17T07:55:02.721Z,13.39
2016-02-17T07:56:02.750Z,13.11
2016-02-17T07:57:02.794Z,12.83
2016-02-17T07:58:02.837Z,12.75
2016-02-17T07:59:02.882Z,12.61
2016-02-17T08:00:02.928Z,12.54
2016-02-17T08:01:02.961Z,12.46
2016-02-17T08:02:03.025Z,12.27
2016-02-17T08:03:03.088Z,12.09
2016-02-17T08:04:03.105Z,11.99
2016-02-17T08:05:03.169Z,12.12
2016-02-17T08:06:03.233Z,12.32
2016-02-17T08:07:03.251Z,12.6
2016-02-17T08:08:03.300Z,12.86
2016-02-17T08:09:03.380Z,13.11
2016-02-17T08:10:03.398Z,13.41
2016-02-17T08:11:03.446Z,13.68
2016-02-17T08:12:03.528Z,13.92
2016-02-17T08:13:03.561Z,14.17
2016-02-17T08:14:02.844Z,14.33
2016-02-17T08:15:03.644Z,14.53
2016-02-17T08:16:03.693Z,14.72
2016-02-17T08:17:03.728Z,14.82
2016-02-17T08:18:03.793Z,14.97
2016-02-17T08:19:05.686Z,15.14
2016-02-17T08:20:03.891Z,15.11
2016-02-17T08:21:04.410Z,15.29
2016-02-17T08:22:03.991Z,15.33
2016-02-17T08:23:04.571Z,15.37
2016-02-17T08:24:05.435Z,15.44
2016-02-17T08:25:04.124Z,15.47
2016-02-17T08:26:04.174Z,15.46
2016-02-17T08:27:04.739Z,15.39
2016-02-17T08:28:05.977Z,15.46
2016-02-17T08:29:05.885Z,15.55
2016-02-17T08:30:05.716Z,15.51
2016-02-17T08:31:04.688Z,15.39
2016-02-17T08:32:04.469Z,15.47
2016-02-17T08:33:04.799Z,15.47
2016-02-17T08:34:04.567Z,15.44
2016-02-17T08:35:04.618Z,15.44
2016-02-17T08:36:04.651Z,15.44
2016-02-17T08:37:05.123Z,15.37
2016-02-17T08:38:04.765Z,15.37
2016-02-17T08:39:04.800Z,15.51
2016-02-17T08:40:04.850Z,15.49
2016-02-17T08:41:04.899Z,15.59
2016-02-17T08:42:04.964Z,15.62
2016-02-17T08:43:04.998Z,15.59
2016-02-17T08:44:05.048Z,15.61
2016-02-17T08:45:05.114Z,15.65
2016-02-17T08:46:05.148Z,15.68
2016-02-17T08:47:05.197Z,15.64
2016-02-17T08:48:05.247Z,15.65
2016-02-17T08:49:05.296Z,15.68
2016-02-17T08:50:05.330Z,15.62
2016-02-17T08:51:05.395Z,15.65
2016-02-17T08:52:05.444Z,15.73
2016-02-17T08:53:05.494Z,15.75
2016-02-17T08:54:05.543Z,15.75
2016-02-17T08:55:05.593Z,15.68
2016-02-17T08:56:05.627Z,15.75
2016-02-17T08:57:05.692Z,15.7
2016-02-17T08:58:05.742Z,15.68
2016-02-17T08:59:05.791Z,15.75
2016-02-17T09:00:05.841Z,15.76
2016-02-17T09:01:05.890Z,15.82
2016-02-17T09:02:05.924Z,15.77
2016-02-17T09:03:05.990Z,15.79
2016-02-17T09:04:06.040Z,15.83
2016-02-17T09:05:06.074Z,15.91
2016-02-17T09:06:06.138Z,15.84
2016-02-17T09:07:06.188Z,15.91
2016-02-17T09:08:06.221Z,15.83
2016-02-17T09:09:06.271Z,15.83
2016-02-17T09:10:06.337Z,15.84
2016-02-17T09:11:06.370Z,15.86
2016-02-17T09:12:06.420Z,15.94
2016-02-17T09:13:06.484Z,15.95
2016-02-17T09:14:06.520Z,15.92
2016-02-17T09:15:06.570Z,16.01
2016-02-17T09:16:06.618Z,16
2016-02-17T09:17:06.668Z,16.04
2016-02-17T09:18:06.733Z,16.05
2016-02-17T09:19:06.767Z,16.12
2016-02-17T09:20:06.816Z,16.17
2016-02-17T09:21:06.866Z,16.17
2016-02-17T09:22:06.900Z,16.24
2016-02-17T09:23:06.965Z,16.28
2016-02-17T09:24:07.015Z,16.32
2016-02-17T09:25:07.064Z,16.23
2016-02-17T09:26:07.130Z,16.33
2016-02-17T09:27:07.163Z,16.31
2016-02-17T09:28:07.213Z,16.31
2016-02-17T09:29:07.262Z,16.35
2016-02-17T09:30:07.313Z,16.38
2016-02-17T09:31:07.362Z,16.38
2016-02-17T09:32:07.427Z,16.42
2016-02-17T09:33:07.460Z,16.5
2016-02-17T09:34:07.510Z,16.41
2016-02-17T09:35:07.560Z,16.32
2016-02-17T09:36:07.625Z,16.42
2016-02-17T09:37:07.644Z,16.5
2016-02-17T09:38:07.710Z,16.46
2016-02-17T09:39:07.759Z,16.39
2016-02-17T09:40:07.808Z,16.46
2016-02-17T09:41:07.857Z,16.46
2016-02-17T09:42:07.907Z,16.47
2016-02-17T09:43:07.957Z,16.43
2016-02-17T09:44:08.006Z,16.54
2016-02-17T09:45:08.056Z,16.43
2016-02-17T09:46:08.120Z,16.49
2016-02-17T09:47:08.155Z,16.6
2016-02-17T09:48:08.204Z,16.47
2016-02-17T09:49:08.254Z,16.58
2016-02-17T09:50:08.303Z,16.61
2016-02-17T09:51:08.369Z,16.56
2016-02-17T09:52:08.403Z,16.66
2016-02-17T09:53:08.468Z,16.72
2016-02-17T09:54:08.517Z,16.71
2016-02-17T09:55:08.552Z,16.66
2016-02-17T09:56:08.616Z,16.66
2016-02-17T09:57:08.650Z,16.68
2016-02-17T09:58:08.716Z,16.64
2016-02-17T09:59:08.766Z,16.72
2016-02-17T10:00:08.816Z,16.64
2016-02-17T10:01:08.864Z,16.71
2016-02-17T10:02:08.899Z,16.68
2016-02-17T10:03:08.964Z,16.69
2016-02-17T10:04:09.013Z,16.66
2016-02-17T10:05:09.062Z,16.75
2016-02-17T10:06:09.096Z,16.71
2016-02-17T10:07:09.177Z,16.72
2016-02-17T10:08:09.212Z,16.66
2016-02-17T10:09:09.260Z,16.68
2016-02-17T10:10:09.310Z,16.58
2016-02-17T10:11:09.360Z,16.66
2016-02-17T10:12:09.409Z,16.69
2016-02-17T10:13:09.443Z,16.66
2016-02-17T10:14:09.493Z,16.71
2016-02-17T10:15:09.542Z,16.66
2016-02-17T10:16:09.609Z,16.71
2016-02-17T10:17:09.642Z,16.75
2016-02-17T10:18:09.692Z,16.65
2016-02-17T10:19:09.787Z,16.66
2016-02-17T10:20:09.790Z,16.75
2016-02-17T10:21:09.840Z,16.72
2016-02-17T10:22:09.889Z,16.66
2016-02-17T10:23:09.189Z,16.69
2016-02-17T10:24:10.005Z,16.68
2016-02-17T10:25:10.069Z,16.75
2016-02-17T10:26:10.103Z,16.61
2016-02-17T10:27:10.153Z,16.64
2016-02-17T10:28:10.187Z,16.65
2016-02-17T10:29:10.252Z,16.58
2016-02-17T10:30:10.302Z,16.66
2016-02-17T10:31:10.367Z,16.61
2016-02-17T10:32:10.402Z,16.66
2016-02-17T10:33:10.497Z,16.69
2016-02-17T10:34:10.500Z,16.65
2016-02-17T10:35:10.550Z,16.74
2016-02-17T10:36:10.599Z,16.66
2016-02-17T10:37:10.649Z,16.66
2016-02-17T10:38:10.699Z,16.69
2016-02-17T10:39:10.749Z,16.74
2016-02-17T10:40:10.799Z,16.64
2016-02-17T10:41:10.847Z,16.66
2016-02-17T10:42:10.897Z,16.66
2016-02-17T10:43:10.947Z,16.66
2016-02-17T10:44:11.063Z,16.71
2016-02-17T10:45:11.756Z,16.74
2016-02-17T10:46:10.931Z,16.66
2016-02-17T10:47:11.708Z,16.66
2016-02-17T10:48:11.081Z,16.66
2016-02-17T10:49:11.241Z,16.72
2016-02-17T10:50:11.289Z,16.74
2016-02-17T10:51:11.356Z,16.75
2016-02-17T10:52:11.389Z,16.66
2016-02-17T10:53:11.439Z,16.61
2016-02-17T10:54:11.489Z,16.68
2016-02-17T10:55:11.539Z,16.71
2016-02-17T10:56:11.588Z,16.74
2016-02-17T10:57:11.647Z,16.71
2016-02-17T10:58:11.697Z,16.64
2016-02-17T10:59:11.730Z,16.75
2016-02-17T11:00:11.796Z,16.75
2016-02-17T11:01:11.846Z,16.78
2016-02-17T11:02:11.738Z,16.72
2016-02-17T11:03:11.929Z,16.75
2016-02-17T11:04:11.994Z,16.71
2016-02-17T11:05:12.029Z,16.69
2016-02-17T11:06:12.093Z,16.68
2016-02-17T11:07:12.127Z,16.71
2016-02-17T11:08:12.209Z,16.68
2016-02-17T11:09:12.242Z,16.66
2016-02-17T11:10:11.527Z,16.58
2016-02-17T11:11:12.326Z,16.57
2016-02-17T11:12:12.438Z,16.53
2016-02-17T11:13:12.425Z,16.56
2016-02-17T11:14:12.475Z,16.39
2016-02-17T11:15:12.556Z,16.42
2016-02-17T11:16:12.652Z,16.38
2016-02-17T11:17:12.640Z,16.46
2016-02-17T11:18:12.689Z,16.47
2016-02-17T11:19:12.754Z,16.41
2016-02-17T11:20:12.787Z,16.42
2016-02-17T11:21:12.822Z,16.35
2016-02-17T11:22:12.903Z,16.41
2016-02-17T11:23:12.921Z,16.38
2016-02-17T11:24:12.970Z,16.39
2016-02-17T11:25:13.036Z,16.35
2016-02-17T11:26:13.070Z,16.35
2016-02-17T11:27:13.135Z,16.42
2016-02-17T11:28:13.200Z,16.32
2016-02-17T11:29:13.219Z,16.26
2016-02-17T11:30:13.284Z,16.29
2016-02-17T11:31:13.349Z,16.35
2016-02-17T11:32:13.367Z,16.41
2016-02-17T11:33:13.433Z,16.31
2016-02-17T11:34:13.561Z,16.32
2016-02-17T11:35:13.532Z,16.32
2016-02-17T11:36:13.581Z,16.36
2016-02-17T11:37:13.646Z,16.33
2016-02-17T11:38:13.665Z,16.26
2016-02-17T11:39:13.713Z,16.31
2016-02-17T11:40:13.779Z,16.28
2016-02-17T11:41:13.829Z,16.26
2016-02-17T11:42:13.879Z,16.28
2016-02-17T11:43:13.929Z,16.28
2016-02-17T11:44:13.977Z,16.23
2016-02-17T11:45:14.012Z,16.35
2016-02-17T11:46:14.093Z,16.17
2016-02-17T11:47:14.143Z,16.29
2016-02-17T11:48:14.177Z,16.31
2016-02-17T11:49:14.241Z,16.26
2016-02-17T11:50:14.275Z,16.28
2016-02-17T11:51:14.310Z,16.24
2016-02-17T11:52:14.749Z,16.24
2016-02-17T11:53:13.690Z,16.17
2016-02-17T11:54:14.505Z,16.26
2016-02-17T11:55:14.523Z,16.17
2016-02-17T11:56:14.557Z,16.13
2016-02-17T11:57:14.467Z,16.24
2016-02-17T11:58:14.672Z,16.12
2016-02-17T11:59:14.723Z,16.12
2016-02-17T12:00:14.803Z,16.1
2016-02-17T12:01:14.820Z,16.12
2016-02-17T12:02:14.871Z,16.1
2016-02-17T12:03:14.920Z,16.1
2016-02-17T12:04:14.970Z,16.09
2016-02-17T12:05:15.086Z,16.12
2016-02-17T12:06:15.074Z,16.12
2016-02-17T12:07:15.122Z,16.15
2016-02-17T12:08:15.157Z,16.1
2016-02-17T12:09:15.222Z,16.16
2016-02-17T12:10:15.272Z,16.17
2016-02-17T12:11:15.321Z,16.21
2016-02-17T12:12:15.371Z,16.12
2016-02-17T12:13:15.421Z,16.16
2016-02-17T12:14:15.455Z,16.1
2016-02-17T12:15:15.551Z,16.09
2016-02-17T12:16:15.585Z,16.13
2016-02-17T12:17:15.634Z,16.12
2016-02-17T12:18:15.669Z,16.12
2016-02-17T12:19:15.734Z,16.1
2016-02-17T12:20:15.767Z,16.1
2016-02-17T12:21:15.802Z,16.15
2016-02-17T12:22:15.867Z,16.1
2016-02-17T12:23:15.932Z,16.15
2016-02-17T12:24:15.950Z,16.15
2016-02-17T12:25:16.015Z,16.15
2016-02-17T12:26:16.081Z,16.15
2016-02-17T12:27:16.115Z,16.13
2016-02-17T12:28:16.164Z,16.12
2016-02-17T12:29:16.197Z,16.12
2016-02-17T12:30:16.279Z,16.12
2016-02-17T12:31:16.297Z,16.12
2016-02-17T12:32:16.347Z,15.97
2016-02-17T12:33:16.428Z,15.97
2016-02-17T12:34:16.461Z,16
2016-02-17T12:35:16.495Z,16.01
2016-02-17T12:36:16.576Z,16.08
2016-02-17T12:37:16.625Z,16
2016-02-17T12:38:16.660Z,16.1
2016-02-17T12:39:16.709Z,16.01
2016-02-17T12:40:16.775Z,16.04
2016-02-17T12:41:16.793Z,16.04
2016-02-17T12:42:16.858Z,16
2016-02-17T12:43:16.939Z,16.02
2016-02-17T12:44:16.957Z,15.98
2016-02-17T12:45:17.007Z,16.01
2016-02-17T12:46:17.072Z,16
2016-02-17T12:47:17.105Z,15.9
2016-02-17T12:48:17.155Z,15.97
2016-02-17T12:49:17.190Z,16.02
2016-02-17T12:50:17.285Z,15.95
2016-02-17T12:51:17.304Z,16.01
2016-02-17T12:52:17.354Z,16
2016-02-17T12:53:17.403Z,16.01
2016-02-17T12:54:17.468Z,16
2016-02-17T12:55:17.502Z,15.98